Terminal Aerodrome Forecast
Issued by NWS

Home | Current Version | Previous Version | Text Only | Print | Product List | Glossary On
Versions: 1 2 3 4 5 6 7 8 9 10 11 12 13 14 15 16 17 18 19 20 21 22 23 24 25 26 27 28
000
FTUS41 KCTP 231734
TAFJST
TAF
KJST 231734Z 2318/2418 22011G19KT P6SM BKN025 OVC035
     FM232000 24007KT P6SM SCT025 BKN035
     FM240300 19005KT 6SM BR BKN010
     FM240900 19005KT 5SM BR OVC035=

USA.gov is the U.S. government's official web portal to all federal, state and local government web resources and services.